sensor_id;sensor_type;location;lat;lon;timestamp;pressure;altitude;pressure_sealevel;temperature;humidity
58239;BME280;44037;55.638;37.356;2022-12-11T00:00:36;98259.41;;;1.05;100.00
58239;BME280;44037;55.638;37.356;2022-12-11T00:03:05;98262.81;;;1.06;100.00
58239;BME280;44037;55.638;37.356;2022-12-11T00:05:32;98249.19;;;1.05;100.00
58239;BME280;44037;55.638;37.356;2022-12-11T00:08:00;98252.41;;;0.98;100.00
58239;BME280;44037;55.638;37.356;2022-12-11T00:10:27;98245.50;;;0.94;100.00
58239;BME280;44037;55.638;37.356;2022-12-11T00:12:54;98257.34;;;0.92;100.00
58239;BME280;44037;55.638;37.356;2022-12-11T00:15:21;98258.97;;;0.88;100.00
58239;BME280;44037;55.638;37.356;2022-12-11T00:17:48;98251.28;;;0.87;100.00
58239;BME280;44037;55.638;37.356;2022-12-11T00:20:16;98247.94;;;0.89;100.00
58239;BME280;44037;55.638;37.356;2022-12-11T00:22:43;98253.97;;;0.93;100.00
58239;BME280;44037;55.638;37.356;2022-12-11T00:25:10;98251.50;;;0.96;100.00
58239;BME280;44037;55.638;37.356;2022-12-11T00:27:38;98260.94;;;0.99;100.00
58239;BME280;44037;55.638;37.356;2022-12-11T00:30:06;98261.09;;;1.05;100.00
58239;BME280;44037;55.638;37.356;2022-12-11T00:32:33;98257.84;;;1.11;100.00
58239;BME280;44037;55.638;37.356;2022-12-11T00:35:00;98249.41;;;1.15;100.00
58239;BME280;44037;55.638;37.356;2022-12-11T00:37:30;98246.03;;;1.16;100.00
58239;BME280;44037;55.638;37.356;2022-12-11T00:39:57;98248.53;;;1.13;100.00
58239;BME280;44037;55.638;37.356;2022-12-11T00:42:24;98250.19;;;1.11;100.00
58239;BME280;44037;55.638;37.356;2022-12-11T00:44:51;98257.84;;;1.11;100.00
58239;BME280;44037;55.638;37.356;2022-12-11T00:47:19;98259.59;;;1.15;100.00
58239;BME280;44037;55.638;37.356;2022-12-11T00:49:46;98258.78;;;1.16;100.00
58239;BME280;44037;55.638;37.356;2022-12-11T00:52:13;98260.59;;;1.20;100.00
58239;BME280;44037;55.638;37.356;2022-12-11T00:54:43;98264.97;;;1.24;100.00
58239;BME280;44037;55.638;37.356;2022-12-11T00:57:10;98267.53;;;1.26;100.00
58239;BME280;44037;55.638;37.356;2022-12-11T00:59:37;98271.66;;;1.20;100.00
58239;BME280;44037;55.638;37.356;2022-12-11T01:02:04;98281.00;;;1.20;100.00
58239;BME280;44037;55.638;37.356;2022-12-11T01:04:34;98286.13;;;1.21;100.00
58239;BME280;44037;55.638;37.356;2022-12-11T01:07:01;98279.41;;;1.23;100.00
58239;BME280;44037;55.638;37.356;2022-12-11T01:09:28;98278.59;;;1.26;100.00
58239;BME280;44037;55.638;37.356;2022-12-11T01:12:13;98273.56;;;1.29;100.00
58239;BME280;44037;55.638;37.356;2022-12-11T01:14:40;98270.16;;;1.29;100.00
58239;BME280;44037;55.638;37.356;2022-12-11T01:17:07;98259.84;;;1.24;100.00
58239;BME280;44037;55.638;37.356;2022-12-11T01:19:34;98263.06;;;1.17;100.00
58239;BME280;44037;55.638;37.356;2022-12-11T01:22:01;98270.53;;;1.09;100.00
58239;BME280;44037;55.638;37.356;2022-12-11T01:24:28;98275.50;;;1.03;100.00
58239;BME280;44037;55.638;37.356;2022-12-11T01:26:55;98272.81;;;0.98;100.00
58239;BME280;44037;55.638;37.356;2022-12-11T01:29:24;98270.16;;;0.94;100.00
58239;BME280;44037;55.638;37.356;2022-12-11T01:31:51;98265.78;;;0.88;100.00
58239;BME280;44037;55.638;37.356;2022-12-11T01:34:18;98273.28;;;0.83;100.00
58239;BME280;44037;55.638;37.356;2022-12-11T01:36:45;98270.59;;;0.79;100.00
58239;BME280;44037;55.638;37.356;2022-12-11T01:39:11;98259.56;;;0.78;100.00
58239;BME280;44037;55.638;37.356;2022-12-11T01:41:38;98267.00;;;0.70;100.00
58239;BME280;44037;55.638;37.356;2022-12-11T01:44:07;98264.25;;;0.63;100.00
58239;BME280;44037;55.638;37.356;2022-12-11T01:46:55;98273.41;;;0.56;100.00
58239;BME280;44037;55.638;37.356;2022-12-11T01:49:24;98274.97;;;0.51;100.00
58239;BME280;44037;55.638;37.356;2022-12-11T01:51:55;98278.22;;;0.45;100.00
58239;BME280;44037;55.638;37.356;2022-12-11T01:54:25;98281.53;;;0.42;100.00
58239;BME280;44037;55.638;37.356;2022-12-11T01:56:56;98285.78;;;0.42;100.00
58239;BME280;44037;55.638;37.356;2022-12-11T01:59:28;98282.44;;;0.43;100.00
58239;BME280;44037;55.638;37.356;2022-12-11T02:02:02;98280.59;;;0.39;100.00
58239;BME280;44037;55.638;37.356;2022-12-11T02:04:33;98276.13;;;0.32;100.00
58239;BME280;44037;55.638;37.356;2022-12-11T02:07:01;98291.34;;;0.28;100.00
58239;BME280;44037;55.638;37.356;2022-12-11T02:09:32;98286.16;;;0.25;100.00
58239;BME280;44037;55.638;37.356;2022-12-11T02:12:01;98288.69;;;0.24;100.00
58239;BME280;44037;55.638;37.356;2022-12-11T02:14:33;98295.63;;;0.29;100.00
58239;BME280;44037;55.638;37.356;2022-12-11T02:17:10;98300.72;;;0.29;100.00
58239;BME280;44037;55.638;37.356;2022-12-11T02:19:49;98299.03;;;0.30;100.00
58239;BME280;44037;55.638;37.356;2022-12-11T02:22:27;98303.22;;;0.28;100.00
58239;BME280;44037;55.638;37.356;2022-12-11T02:25:04;98320.25;;;0.29;100.00
58239;BME280;44037;55.638;37.356;2022-12-11T02:27:35;98318.44;;;0.25;100.00
58239;BME280;44037;55.638;37.356;2022-12-11T02:30:08;98323.38;;;0.20;100.00
58239;BME280;44037;55.638;37.356;2022-12-11T02:32:38;98325.06;;;0.20;100.00
58239;BME280;44037;55.638;37.356;2022-12-11T02:35:11;98321.63;;;0.19;100.00
58239;BME280;44037;55.638;37.356;2022-12-11T02:37:42;98323.19;;;0.12;100.00
58239;BME280;44037;55.638;37.356;2022-12-11T02:40:12;98323.06;;;0.09;100.00
58239;BME280;44037;55.638;37.356;2022-12-11T02:42:42;98319.63;;;0.07;100.00
58239;BME280;44037;55.638;37.356;2022-12-11T02:45:13;98322.06;;;0.04;100.00
58239;BME280;44037;55.638;37.356;2022-12-11T02:47:40;98317.78;;;0.03;100.00
58239;BME280;44037;55.638;37.356;2022-12-11T02:50:12;98324.50;;;0.01;100.00
58239;BME280;44037;55.638;37.356;2022-12-11T02:52:41;98321.22;;;0.04;100.00
58239;BME280;44037;55.638;37.356;2022-12-11T02:55:12;98340.66;;;0.02;100.00
58239;BME280;44037;55.638;37.356;2022-12-11T02:57:44;98339.78;;;0.01;100.00
58239;BME280;44037;55.638;37.356;2022-12-11T03:00:13;98346.63;;;0.02;100.00
58239;BME280;44037;55.638;37.356;2022-12-11T03:02:41;98357.69;;;0.03;100.00
58239;BME280;44037;55.638;37.356;2022-12-11T03:05:10;98355.13;;;0.03;100.00
58239;BME280;44037;55.638;37.356;2022-12-11T03:07:39;98364.53;;;0.05;100.00
58239;BME280;44037;55.638;37.356;2022-12-11T03:10:09;98362.00;;;0.05;100.00
58239;BME280;44037;55.638;37.356;2022-12-11T03:12:38;98360.25;;;0.04;100.00
58239;BME280;44037;55.638;37.356;2022-12-11T03:15:08;98359.47;;;0.07;100.00
58239;BME280;44037;55.638;37.356;2022-12-11T03:17:45;98356.19;;;0.09;100.00
58239;BME280;44037;55.638;37.356;2022-12-11T03:20:23;98362.09;;;0.08;100.00
58239;BME280;44037;55.638;37.356;2022-12-11T03:22:56;98367.09;;;0.05;100.00
58239;BME280;44037;55.638;37.356;2022-12-11T03:25:32;98359.31;;;0.01;100.00
58239;BME280;44037;55.638;37.356;2022-12-11T03:28:08;98368.59;;;-0.02;100.00
58239;BME280;44037;55.638;37.356;2022-12-11T03:30:37;98367.72;;;-0.02;100.00
58239;BME280;44037;55.638;37.356;2022-12-11T03:33:10;98372.63;;;-0.08;100.00
58239;BME280;44037;55.638;37.356;2022-12-11T03:35:40;98370.78;;;-0.12;100.00
58239;BME280;44037;55.638;37.356;2022-12-11T03:38:14;98376.72;;;-0.13;100.00
58239;BME280;44037;55.638;37.356;2022-12-11T03:40:44;98376.66;;;-0.15;100.00
58239;BME280;44037;55.638;37.356;2022-12-11T03:43:12;98384.28;;;-0.15;100.00
58239;BME280;44037;55.638;37.356;2022-12-11T03:45:41;98386.03;;;-0.14;100.00
58239;BME280;44037;55.638;37.356;2022-12-11T03:48:11;98383.63;;;-0.09;100.00
58239;BME280;44037;55.638;37.356;2022-12-11T03:50:39;98394.69;;;-0.09;100.00
58239;BME280;44037;55.638;37.356;2022-12-11T03:53:09;98406.50;;;-0.11;100.00
58239;BME280;44037;55.638;37.356;2022-12-11T03:55:36;98407.28;;;-0.13;100.00
58239;BME280;44037;55.638;37.356;2022-12-11T03:58:05;98408.81;;;-0.19;100.00
58239;BME280;44037;55.638;37.356;2022-12-11T04:00:32;98413.75;;;-0.23;100.00
58239;BME280;44037;55.638;37.356;2022-12-11T04:02:59;98416.97;;;-0.29;100.00
58239;BME280;44037;55.638;37.356;2022-12-11T04:05:40;98415.13;;;-0.33;100.00
58239;BME280;44037;55.638;37.356;2022-12-11T04:08:08;98422.56;;;-0.39;100.00
58239;BME280;44037;55.638;37.356;2022-12-11T04:10:35;98419.00;;;-0.44;100.00
58239;BME280;44037;55.638;37.356;2022-12-11T04:13:02;98422.97;;;-0.53;100.00
58239;BME280;44037;55.638;37.356;2022-12-11T04:15:29;98419.38;;;-0.58;100.00
58239;BME280;44037;55.638;37.356;2022-12-11T04:17:56;98412.41;;;-0.64;100.00
58239;BME280;44037;55.638;37.356;2022-12-11T04:20:42;98430.19;;;-0.65;100.00
58239;BME280;44037;55.638;37.356;2022-12-11T04:23:26;98431.72;;;-0.69;100.00
58239;BME280;44037;55.638;37.356;2022-12-11T04:26:13;98416.28;;;-0.75;100.00
58239;BME280;44037;55.638;37.356;2022-12-11T04:28:41;98436.63;;;-0.75;100.00
58239;BME280;44037;55.638;37.356;2022-12-11T04:31:10;98441.59;;;-0.78;100.00
58239;BME280;44037;55.638;37.356;2022-12-11T04:33:37;98430.44;;;-0.82;100.00
58239;BME280;44037;55.638;37.356;2022-12-11T04:36:07;98433.00;;;-0.82;100.00
58239;BME280;44037;55.638;37.356;2022-12-11T04:38:34;98434.69;;;-0.82;100.00
58239;BME280;44037;55.638;37.356;2022-12-11T04:41:03;98433.91;;;-0.80;100.00
58239;BME280;44037;55.638;37.356;2022-12-11T04:43:30;98434.94;;;-0.74;100.00
58239;BME280;44037;55.638;37.356;2022-12-11T04:46:02;98427.28;;;-0.74;100.00
58239;BME280;44037;55.638;37.356;2022-12-11T04:48:29;98427.28;;;-0.74;100.00
58239;BME280;44037;55.638;37.356;2022-12-11T04:50:56;98423.84;;;-0.76;100.00
58239;BME280;44037;55.638;37.356;2022-12-11T04:53:25;98426.44;;;-0.75;100.00
58239;BME280;44037;55.638;37.356;2022-12-11T04:55:53;98420.53;;;-0.74;100.00
58239;BME280;44037;55.638;37.356;2022-12-11T04:58:20;98418.97;;;-0.70;100.00
58239;BME280;44037;55.638;37.356;2022-12-11T05:00:47;98424.28;;;-0.64;100.00
58239;BME280;44037;55.638;37.356;2022-12-11T05:03:15;98420.00;;;-0.65;100.00
58239;BME280;44037;55.638;37.356;2022-12-11T05:05:46;98425.81;;;-0.68;100.00
58239;BME280;44037;55.638;37.356;2022-12-11T05:08:13;98427.41;;;-0.71;100.00
58239;BME280;44037;55.638;37.356;2022-12-11T05:10:42;98437.47;;;-0.74;100.00
58239;BME280;44037;55.638;37.356;2022-12-11T05:13:09;98440.59;;;-0.83;100.00
58239;BME280;44037;55.638;37.356;2022-12-11T05:15:37;98433.69;;;-0.86;100.00
58239;BME280;44037;55.638;37.356;2022-12-11T05:18:05;98443.94;;;-0.84;100.00
58239;BME280;44037;55.638;37.356;2022-12-11T05:20:32;98443.22;;;-0.80;100.00
58239;BME280;44037;55.638;37.356;2022-12-11T05:22:59;98447.56;;;-0.78;100.00
58239;BME280;44037;55.638;37.356;2022-12-11T05:25:26;98459.47;;;-0.76;100.00
58239;BME280;44037;55.638;37.356;2022-12-11T05:27:54;98463.78;;;-0.74;100.00
58239;BME280;44037;55.638;37.356;2022-12-11T05:30:21;98473.97;;;-0.74;100.00
58239;BME280;44037;55.638;37.356;2022-12-11T05:32:48;98469.66;;;-0.76;100.00
58239;BME280;44037;55.638;37.356;2022-12-11T05:35:15;98480.63;;;-0.78;100.00
58239;BME280;44037;55.638;37.356;2022-12-11T05:37:42;98484.06;;;-0.75;100.00
58239;BME280;44037;55.638;37.356;2022-12-11T05:40:10;98485.75;;;-0.76;100.00
58239;BME280;44037;55.638;37.356;2022-12-11T05:42:37;98506.06;;;-0.78;100.00
58239;BME280;44037;55.638;37.356;2022-12-11T05:45:06;98508.59;;;-0.78;100.00
58239;BME280;44037;55.638;37.356;2022-12-11T05:47:34;98512.94;;;-0.75;100.00
58239;BME280;44037;55.638;37.356;2022-12-11T05:50:01;98515.53;;;-0.73;100.00
58239;BME280;44037;55.638;37.356;2022-12-11T05:52:30;98512.16;;;-0.72;100.00
58239;BME280;44037;55.638;37.356;2022-12-11T05:54:57;98523.97;;;-0.74;100.00
58239;BME280;44037;55.638;37.356;2022-12-11T05:57:24;98519.63;;;-0.77;100.00
58239;BME280;44037;55.638;37.356;2022-12-11T05:59:51;98516.13;;;-0.81;100.00
58239;BME280;44037;55.638;37.356;2022-12-11T06:02:20;98528.72;;;-0.84;100.00
58239;BME280;44037;55.638;37.356;2022-12-11T06:04:47;98543.06;;;-0.86;100.00
58239;BME280;44037;55.638;37.356;2022-12-11T06:07:14;98558.38;;;-0.84;100.00
58239;BME280;44037;55.638;37.356;2022-12-11T06:09:41;98563.41;;;-0.86;100.00
58239;BME280;44037;55.638;37.356;2022-12-11T06:12:08;98565.00;;;-0.88;100.00
58239;BME280;44037;55.638;37.356;2022-12-11T06:14:35;98565.84;;;-0.89;100.00
58239;BME280;44037;55.638;37.356;2022-12-11T06:17:02;98562.44;;;-0.89;100.00
58239;BME280;44037;55.638;37.356;2022-12-11T06:19:30;98565.91;;;-0.87;100.00
58239;BME280;44037;55.638;37.356;2022-12-11T06:21:57;98565.91;;;-0.87;100.00
58239;BME280;44037;55.638;37.356;2022-12-11T06:24:24;98572.78;;;-0.85;100.00
58239;BME280;44037;55.638;37.356;2022-12-11T06:26:51;98577.03;;;-0.84;100.00
58239;BME280;44037;55.638;37.356;2022-12-11T06:29:18;98571.97;;;-0.84;100.00
58239;BME280;44037;55.638;37.356;2022-12-11T06:31:45;98562.47;;;-0.88;100.00
58239;BME280;44037;55.638;37.356;2022-12-11T06:34:12;98570.94;;;-0.89;100.00
58239;BME280;44037;55.638;37.356;2022-12-11T06:36:40;98564.22;;;-0.87;100.00
58239;BME280;44037;55.638;37.356;2022-12-11T06:39:07;98570.19;;;-0.86;100.00
58239;BME280;44037;55.638;37.356;2022-12-11T06:41:34;98571.84;;;-0.87;100.00
58239;BME280;44037;55.638;37.356;2022-12-11T06:44:01;98575.16;;;-0.89;100.00
58239;BME280;44037;55.638;37.356;2022-12-11T06:46:28;98564.13;;;-0.90;100.00
58239;BME280;44037;55.638;37.356;2022-12-11T06:48:55;98561.44;;;-0.93;100.00
58239;BME280;44037;55.638;37.356;2022-12-11T06:51:22;98569.88;;;-0.94;100.00
58239;BME280;44037;55.638;37.356;2022-12-11T06:53:52;98570.69;;;-0.95;100.00
58239;BME280;44037;55.638;37.356;2022-12-11T06:56:20;98575.78;;;-0.95;100.00
58239;BME280;44037;55.638;37.356;2022-12-11T06:58:47;98569.13;;;-0.91;100.00
58239;BME280;44037;55.638;37.356;2022-12-11T07:01:16;98575.91;;;-0.92;100.00
58239;BME280;44037;55.638;37.356;2022-12-11T07:03:43;98586.19;;;-0.89;100.00
58239;BME280;44037;55.638;37.356;2022-12-11T07:06:11;98591.38;;;-0.86;100.00
58239;BME280;44037;55.638;37.356;2022-12-11T07:08:39;98599.31;;;-0.78;100.00
58239;BME280;44037;55.638;37.356;2022-12-11T07:11:09;98593.56;;;-0.72;100.00
58239;BME280;44037;55.638;37.356;2022-12-11T07:13:37;98594.56;;;-0.69;100.00
58239;BME280;44037;55.638;37.356;2022-12-11T07:16:04;98591.84;;;-0.73;100.00
58239;BME280;44037;55.638;37.356;2022-12-11T07:18:35;98584.22;;;-0.73;100.00
58239;BME280;44037;55.638;37.356;2022-12-11T07:21:04;98579.94;;;-0.74;100.00
58239;BME280;44037;55.638;37.356;2022-12-11T07:23:33;98598.63;;;-0.74;100.00
58239;BME280;44037;55.638;37.356;2022-12-11T07:26:03;98600.41;;;-0.71;100.00
58239;BME280;44037;55.638;37.356;2022-12-11T07:28:32;98601.38;;;-0.68;100.00
58239;BME280;44037;55.638;37.356;2022-12-11T07:31:03;98607.47;;;-0.64;100.00
58239;BME280;44037;55.638;37.356;2022-12-11T07:33:30;98603.41;;;-0.59;100.00
58239;BME280;44037;55.638;37.356;2022-12-11T07:36:00;98588.91;;;-0.62;100.00
58239;BME280;44037;55.638;37.356;2022-12-11T07:38:28;98587.00;;;-0.67;100.00
58239;BME280;44037;55.638;37.356;2022-12-11T07:40:55;98594.66;;;-0.66;100.00
58239;BME280;44037;55.638;37.356;2022-12-11T07:43:22;98585.47;;;-0.62;100.00
58239;BME280;44037;55.638;37.356;2022-12-11T07:45:50;98578.88;;;-0.57;100.00
58239;BME280;44037;55.638;37.356;2022-12-11T07:48:17;98600.34;;;-0.50;100.00
58239;BME280;44037;55.638;37.356;2022-12-11T07:50:44;98611.47;;;-0.47;100.00
58239;BME280;44037;55.638;37.356;2022-12-11T07:53:11;98616.69;;;-0.43;100.00
58239;BME280;44037;55.638;37.356;2022-12-11T07:55:38;98621.09;;;-0.39;100.00
58239;BME280;44037;55.638;37.356;2022-12-11T07:58:05;98622.00;;;-0.37;100.00
58239;BME280;44037;55.638;37.356;2022-12-11T08:00:32;98626.19;;;-0.39;100.00
58239;BME280;44037;55.638;37.356;2022-12-11T08:03:00;98621.16;;;-0.38;100.00
58239;BME280;44037;55.638;37.356;2022-12-11T08:05:27;98624.53;;;-0.37;100.00
58239;BME280;44037;55.638;37.356;2022-12-11T08:07:55;98624.53;;;-0.37;100.00
58239;BME280;44037;55.638;37.356;2022-12-11T08:10:22;98624.50;;;-0.39;100.00
58239;BME280;44037;55.638;37.356;2022-12-11T08:12:48;98618.75;;;-0.33;100.00
58239;BME280;44037;55.638;37.356;2022-12-11T08:15:16;98623.16;;;-0.29;100.00
58239;BME280;44037;55.638;37.356;2022-12-11T08:17:42;98626.34;;;-0.35;100.00
58239;BME280;44037;55.638;37.356;2022-12-11T08:20:11;98636.41;;;-0.38;100.00
58239;BME280;44037;55.638;37.356;2022-12-11T08:22:38;98636.53;;;-0.35;100.00
58239;BME280;44037;55.638;37.356;2022-12-11T08:25:06;98645.09;;;-0.33;100.00
58239;BME280;44037;55.638;37.356;2022-12-11T08:27:33;98647.72;;;-0.29;100.00
58239;BME280;44037;55.638;37.356;2022-12-11T08:30:00;98653.00;;;-0.25;100.00
58239;BME280;44037;55.638;37.356;2022-12-11T08:32:29;98664.19;;;-0.21;100.00
58239;BME280;44037;55.638;37.356;2022-12-11T08:34:56;98670.81;;;-0.25;100.00
58239;BME280;44037;55.638;37.356;2022-12-11T08:37:24;98667.47;;;-0.24;100.00
58239;BME280;44037;55.638;37.356;2022-12-11T08:39:51;98668.53;;;-0.17;100.00
58239;BME280;44037;55.638;37.356;2022-12-11T08:42:18;98664.47;;;-0.13;100.00
58239;BME280;44037;55.638;37.356;2022-12-11T08:44:45;98676.19;;;-0.17;100.00
58239;BME280;44037;55.638;37.356;2022-12-11T08:47:12;98673.47;;;-0.22;100.00
58239;BME280;44037;55.638;37.356;2022-12-11T08:49:40;98666.56;;;-0.26;100.00
58239;BME280;44037;55.638;37.356;2022-12-11T08:52:07;98674.00;;;-0.31;100.00
58239;BME280;44037;55.638;37.356;2022-12-11T08:54:35;98678.94;;;-0.35;100.00
58239;BME280;44037;55.638;37.356;2022-12-11T08:57:02;98671.41;;;-0.32;100.00
58239;BME280;44037;55.638;37.356;2022-12-11T08:59:29;98674.06;;;-0.29;100.00
58239;BME280;44037;55.638;37.356;2022-12-11T09:01:56;98675.06;;;-0.25;100.00
58239;BME280;44037;55.638;37.356;2022-12-11T09:04:23;98673.28;;;-0.28;100.00
58239;BME280;44037;55.638;37.356;2022-12-11T09:06:50;98669.66;;;-0.33;100.00
58239;BME280;44037;55.638;37.356;2022-12-11T09:09:17;98665.34;;;-0.36;100.00
58239;BME280;44037;55.638;37.356;2022-12-11T09:11:46;98671.19;;;-0.38;100.00
58239;BME280;44037;55.638;37.356;2022-12-11T09:14:14;98675.44;;;-0.37;100.00
58239;BME280;44037;55.638;37.356;2022-12-11T09:16:41;98666.31;;;-0.32;100.00
58239;BME280;44037;55.638;37.356;2022-12-11T09:19:11;98673.28;;;-0.28;100.00
58239;BME280;44037;55.638;37.356;2022-12-11T09:21:40;98665.69;;;-0.26;100.00
58239;BME280;44037;55.638;37.356;2022-12-11T09:24:08;98660.75;;;-0.22;100.00
58239;BME280;44037;55.638;37.356;2022-12-11T09:26:36;98668.84;;;-0.09;100.00
58239;BME280;44037;55.638;37.356;2022-12-11T09:29:05;98687.88;;;0.01;100.00
58239;BME280;44037;55.638;37.356;2022-12-11T09:31:34;98692.34;;;0.08;100.00
58239;BME280;44037;55.638;37.356;2022-12-11T09:34:03;98703.34;;;0.07;100.00
58239;BME280;44037;55.638;37.356;2022-12-11T09:36:30;98709.97;;;0.02;100.00
58239;BME280;44037;55.638;37.356;2022-12-11T09:38:59;98719.13;;;-0.04;100.00
58239;BME280;44037;55.638;37.356;2022-12-11T09:41:35;98712.13;;;-0.09;100.00
58239;BME280;44037;55.638;37.356;2022-12-11T09:44:17;98704.44;;;-0.11;100.00
58239;BME280;44037;55.638;37.356;2022-12-11T09:46:46;98718.84;;;-0.11;100.00
58239;BME280;44037;55.638;37.356;2022-12-11T09:49:21;98734.88;;;-0.14;100.00
58239;BME280;44037;55.638;37.356;2022-12-11T09:51:57;98734.03;;;-0.14;100.00
58239;BME280;44037;55.638;37.356;2022-12-11T09:54:26;98733.09;;;-0.17;100.00
58239;BME280;44037;55.638;37.356;2022-12-11T09:56:58;98732.22;;;-0.17;100.00
58239;BME280;44037;55.638;37.356;2022-12-11T09:59:34;98728.84;;;-0.16;100.00
58239;BME280;44037;55.638;37.356;2022-12-11T10:02:17;98717.69;;;-0.20;100.00
58239;BME280;44037;55.638;37.356;2022-12-11T10:04:54;98726.13;;;-0.21;100.00
58239;BME280;44037;55.638;37.356;2022-12-11T10:07:31;98723.47;;;-0.24;100.00
58239;BME280;44037;55.638;37.356;2022-12-11T10:10:06;98718.28;;;-0.27;100.00
58239;BME280;44037;55.638;37.356;2022-12-11T10:12:44;98714.94;;;-0.26;100.00
58239;BME280;44037;55.638;37.356;2022-12-11T10:15:21;98709.94;;;-0.23;100.00
58239;BME280;44037;55.638;37.356;2022-12-11T10:17:50;98704.09;;;-0.20;100.00
58239;BME280;44037;55.638;37.356;2022-12-11T10:20:22;98700.09;;;-0.13;100.00
58239;BME280;44037;55.638;37.356;2022-12-11T10:22:52;98702.69;;;-0.12;100.00
58239;BME280;44037;55.638;37.356;2022-12-11T10:25:23;98715.31;;;-0.15;100.00
58239;BME280;44037;55.638;37.356;2022-12-11T10:27:52;98722.91;;;-0.17;100.00
58239;BME280;44037;55.638;37.356;2022-12-11T10:30:23;98724.41;;;-0.22;100.00
58239;BME280;44037;55.638;37.356;2022-12-11T10:32:53;98732.00;;;-0.23;100.00
58239;BME280;44037;55.638;37.356;2022-12-11T10:35:28;98725.16;;;-0.24;100.00
58239;BME280;44037;55.638;37.356;2022-12-11T10:38:03;98720.06;;;-0.24;100.00
58239;BME280;44037;55.638;37.356;2022-12-11T10:40:37;98714.34;;;-0.19;100.00
58239;BME280;44037;55.638;37.356;2022-12-11T10:43:04;98714.53;;;-0.12;100.00
58239;BME280;44037;55.638;37.356;2022-12-11T10:45:32;98704.72;;;-0.03;100.00
58239;BME280;44037;55.638;37.356;2022-12-11T10:48:04;98699.94;;;0.06;100.00
58239;BME280;44037;55.638;37.356;2022-12-11T10:50:31;98693.34;;;0.11;100.00
58239;BME280;44037;55.638;37.356;2022-12-11T10:52:59;98695.19;;;0.15;100.00
58239;BME280;44037;55.638;37.356;2022-12-11T10:55:28;98687.78;;;0.22;100.00
58239;BME280;44037;55.638;37.356;2022-12-11T10:57:58;98684.19;;;0.17;100.00
58239;BME280;44037;55.638;37.356;2022-12-11T11:00:35;98676.38;;;0.12;100.00
58239;BME280;44037;55.638;37.356;2022-12-11T11:03:04;98678.81;;;0.09;100.00
58239;BME280;44037;55.638;37.356;2022-12-11T11:05:33;98685.59;;;0.08;100.00
58239;BME280;44037;55.638;37.356;2022-12-11T11:10:48;98676.34;;;0.10;100.00
58239;BME280;44037;55.638;37.356;2022-12-11T11:13:15;98673.72;;;0.09;100.00
58239;BME280;44037;55.638;37.356;2022-12-11T11:15:44;98676.09;;;0.04;100.00
58239;BME280;44037;55.638;37.356;2022-12-11T11:18:18;98674.16;;;-0.03;100.00
58239;BME280;44037;55.638;37.356;2022-12-11T11:20:50;98668.84;;;-0.09;100.00
58239;BME280;44037;55.638;37.356;2022-12-11T11:23:18;98665.16;;;-0.18;100.00
58239;BME280;44037;55.638;37.356;2022-12-11T11:25:52;98677.94;;;-0.16;100.00
58239;BME280;44037;55.638;37.356;2022-12-11T11:28:22;98663.16;;;-0.25;100.00
58239;BME280;44037;55.638;37.356;2022-12-11T11:31:01;98665.47;;;-0.33;100.00
58239;BME280;44037;55.638;37.356;2022-12-11T11:33:30;98670.47;;;-0.34;100.00
58239;BME280;44037;55.638;37.356;2022-12-11T11:36:00;98667.13;;;-0.33;100.00
58239;BME280;44037;55.638;37.356;2022-12-11T11:38:31;98663.13;;;-0.26;100.00
58239;BME280;44037;55.638;37.356;2022-12-11T11:41:05;98663.09;;;-0.28;100.00
58239;BME280;44037;55.638;37.356;2022-12-11T11:43:43;98670.34;;;-0.37;100.00
58239;BME280;44037;55.638;37.356;2022-12-11T11:46:15;98683.00;;;-0.40;100.00
58239;BME280;44037;55.638;37.356;2022-12-11T11:48:49;98674.56;;;-0.39;100.00
58239;BME280;44037;55.638;37.356;2022-12-11T11:51:22;98682.34;;;-0.35;100.00
58239;BME280;44037;55.638;37.356;2022-12-11T11:53:54;98667.81;;;-0.37;100.00
58239;BME280;44037;55.638;37.356;2022-12-11T11:56:25;98680.63;;;-0.36;100.00
58239;BME280;44037;55.638;37.356;2022-12-11T11:59:00;98685.59;;;-0.39;100.00
58239;BME280;44037;55.638;37.356;2022-12-11T12:01:30;98681.00;;;-0.48;100.00
58239;BME280;44037;55.638;37.356;2022-12-11T12:03:57;98675.69;;;-0.54;100.00
58239;BME280;44037;55.638;37.356;2022-12-11T12:06:38;98675.69;;;-0.54;100.00
58239;BME280;44037;55.638;37.356;2022-12-11T12:09:16;98690.09;;;-0.54;100.00
58239;BME280;44037;55.638;37.356;2022-12-11T12:11:52;98687.38;;;-0.59;100.00
58239;BME280;44037;55.638;37.356;2022-12-11T12:14:24;98697.50;;;-0.60;100.00
58239;BME280;44037;55.638;37.356;2022-12-11T12:17:04;98692.41;;;-0.60;100.00
58239;BME280;44037;55.638;37.356;2022-12-11T12:19:41;98703.69;;;-0.54;100.00
58239;BME280;44037;55.638;37.356;2022-12-11T12:22:20;98700.34;;;-0.53;100.00
58239;BME280;44037;55.638;37.356;2022-12-11T12:24:59;98700.41;;;-0.51;100.00
58239;BME280;44037;55.638;37.356;2022-12-11T12:27:34;98691.94;;;-0.50;100.00
58239;BME280;44037;55.638;37.356;2022-12-11T12:30:08;98682.63;;;-0.50;100.00
58239;BME280;44037;55.638;37.356;2022-12-11T12:32:44;98696.22;;;-0.49;100.00
58239;BME280;44037;55.638;37.356;2022-12-11T12:35:26;98686.00;;;-0.51;100.00
58239;BME280;44037;55.638;37.356;2022-12-11T12:37:59;98677.50;;;-0.51;100.00
58239;BME280;44037;55.638;37.356;2022-12-11T12:40:31;98686.91;;;-0.49;100.00
58239;BME280;44037;55.638;37.356;2022-12-11T12:43:05;98673.31;;;-0.49;100.00
58239;BME280;44037;55.638;37.356;2022-12-11T12:45:45;98676.72;;;-0.49;100.00
58239;BME280;44037;55.638;37.356;2022-12-11T12:48:16;98676.56;;;-0.53;100.00
58239;BME280;44037;55.638;37.356;2022-12-11T12:50:46;98677.91;;;-0.63;100.00
58239;BME280;44037;55.638;37.356;2022-12-11T12:53:17;98672.75;;;-0.65;100.00
58239;BME280;44037;55.638;37.356;2022-12-11T12:55:46;98670.28;;;-0.63;100.00
58239;BME280;44037;55.638;37.356;2022-12-11T12:58:26;98674.44;;;-0.65;100.00